SondeTracker

Meteorological Radiosondes Database

Operations
Radiosondes Table of last 48 hours (311)
Number Type Last Frame [UTC] φ λ Course Speed Altitude Climbing Launch Site Frequency Nearest City Distance from QTH Status
R1020148 RS41 2020-08-07 14:40:27 40.9451 -3.3204 38 ° 30 km/h 1804 m -4.1 m/s Madrid (ES) 403.000 MHz Guadalajara (ES) 0.00 km UNKNOWN
ME96228BB M10 2020-08-07 14:35:27 48.8889 2.24676 237 ° 15 km/h 598 m -3.2 m/s Trappes (FR) 400.998 MHz Puteaux (FR) 0.00 km UNKNOWN
R2740500 RS41-SGP 2020-08-07 14:25:18 54.5859 9.71853 154 ° 0 km/h 78 m -0.3 m/s Schleswig (DE) 402.50 MHz Schleswig (DE) 0.00 km UNKNOWN
S0350259 RS41 2020-08-07 14:13:01 44.8004 8.77732 250 ° 24 km/h 1075 m -4.2 m/s Milano-Linate (IT) 404.80 MHz Alessandria (IT) 0.00 km UNKNOWN
S1640223 RS41-SG 2020-08-07 13:58:27 51.5362 1.01916 356 ° 24 km/h 762 m -3.5 m/s Herstmonceux (GB) 404.783 MHz Canterbury (GB) 0.00 km UNKNOWN
ME9722369 M10 2020-08-07 13:57:41 41.2482 8.30732 155 ° 81 km/h 9420 m -4.5 m/s Ajaccio (FR) MHz Sassari (IT) 0.00 km UNKNOWN
S0430218 RS41 2020-08-07 13:52:57 50.3209 10.0333 327 ° 15 km/h 687 m -4.3 m/s Meiningen (DE) 402.30 MHz Bischofsheim an der Rhön (DE) 0.00 km UNKNOWN
R3820483 RS41 2020-08-07 13:52:25 52.0943 13.5412 234 ° 6 km/h 139 m -3.3 m/s Lindenberg (DE) 405.10 MHz Teupitz (DE) 0.00 km FOUND
R3340190 RS41 2020-08-07 13:52:18 50.7698 4.46134 240 ° 15 km/h 347 m -4.2 m/s Uccle (BE) 403.50 MHz Brussels (BE) 0.00 km UNKNOWN
S1520861 RS41 2020-08-07 13:51:55 47.4771 18.2763 246 ° 22 km/h 430 m -14.5 m/s Budapest (HU) 403.00 MHz Oroszlány (HU) 0.00 km UNKNOWN
S1650412 RS41 2020-08-07 13:48:27 51.0829 -4.77782 43 ° 111 km/h 9914 m -6.6 m/s 405.702 MHz Plymouth (GB) 0.00 km UNKNOWN
ME0122A0F M10 2020-08-07 13:44:36 48.1866 15.7282 253 ° 11 km/h 405 m -11.6 m/s Vienna (AT) 400.999 MHz Sankt Pölten (AT) 0.00 km UNKNOWN
S0341845 RS41 2020-08-07 13:42:09 40.4894 17.6798 176 ° 22 km/h 363 m -5.4 m/s Brindisi (IT) 402.70 MHz Brindisi (IT) 0.00 km UNKNOWN
R4250347 RS41 2020-08-07 13:39:38 -25.6002 -48.7575 66 ° 30 km/h 17218 m -6.1 m/s 403.002 MHz 0.00 km UNKNOWN
R3510180 RS41-SG 2020-08-07 13:38:59 41.2257 11.9437 89 ° 11 km/h 982 m -6.5 m/s Pratica di Mare (IT) 404.20 MHz Anzio (IT) 0.00 km UNKNOWN
R2320760 RS41-SGP 2020-08-07 13:36:06 52.7425 9.76225 326 ° 15 km/h 469 m -7.4 m/s Bergen (DE) 405.90 MHz Bad Fallingbostel (DE) 0.00 km UNKNOWN
R2820744 RS41 2020-08-07 13:29:53 51.2566 6.97757 249 ° 4 km/h 653 m -4.9 m/s Essen (DE) 405.30 MHz Mettmann (DE) 0.00 km UNKNOWN
P3540767 RS41 2020-08-07 13:28:58 24.5095 120.223 232 ° 20 km/h 8253 m -5.5 m/s New Taipei (TW) 400.30 MHz 0.00 km UNKNOWN
R4410391 RS41 2020-08-07 13:28:27 54.7465 17.4698 314 ° 19 km/h 882 m -10.5 m/s Łeba (PL) 403.00 MHz Łeba (PL) 0.00 km UNKNOWN
R4410623 RS41-SG 2020-08-07 13:28:27 43.0555 22.8644 269 ° 17 km/h 1538 m -10.8 m/s Sofia (BG) 405.302 MHz Dimitrovgrad (RS) 0.00 km UNKNOWN
R3310894 RS41 2020-08-07 13:28:06 45.6908 15.3926 257 ° 44 km/h 24560 m -29.1 m/s Zagreb (HR) 402.00 MHz Ozalj (HR) 0.00 km UNKNOWN
S0730287 RS41 2020-08-07 13:24:27 60.7008 23.6393 68 ° 9 km/h 384 m -13.3 m/s Jokioinen (FI) 403.000 MHz Somero (FI) 0.00 km UNKNOWN
S1620148 RS41-SG 2020-08-07 13:22:57 56.0229 -1.05024 31 ° 109 km/h 8762 m -4.3 m/s 404.402 MHz 0.00 km UNKNOWN
R3620009 2020-08-07 13:17:28 -22.971 -43.0666 123 ° 37 km/h 12290 m -14.3 m/s 405.300 MHz 0.00 km UNKNOWN
R2331282 RS41 2020-08-07 13:17:08 49.119 11.3257 289 ° 17 km/h 1601 m -9.9 m/s Kümmersbruck (DE) 402.70 MHz Greding (DE) 0.00 km UNKNOWN
R3450440 RS41 2020-08-07 13:17:06 45.6809 12.4335 284 ° 15 km/h 2311 m -10.3 m/s Udine-Rivolto (IT) 404.00 MHz Treviso (IT) 0.00 km UNKNOWN
R0350106 RS41-SGP 2020-08-07 13:16:51 49.1088 19.7841 51 ° 7 km/h 2056 m -12.3 m/s Poprad (SK) 400.60 MHz Liptovský Hrádok (SK) 0.00 km UNKNOWN
R2330351 RS41 2020-08-07 13:16:48 49.5047 7.01835 271 ° 17 km/h 622 m -6.7 m/s Idar-Oberstein (DE) 402.70 MHz Wadern (DE) 0.00 km UNKNOWN
S0410199 RS41 2020-08-07 13:16:41 47.8208 11.0299 249 ° 20 km/h 1191 m -3.9 m/s München (DE) 402.30 MHz Weilheim in Oberbayern (DE) 0.00 km UNKNOWN
R4420070 RS41 2020-08-07 13:16:05 52.4365 20.588 228 ° 26 km/h 246 m -11.4 m/s Legionowo (PL) 404.50 MHz Zakroczym (PL) 0.00 km UNKNOWN
N4710531 RS41 2020-08-07 13:15:46 46.403 7.07385 360 ° 7 km/h 2714 m -4.3 m/s Payerne (CH) 403.50 MHz Montreux (CH) 0.00 km UNKNOWN
P1930457 RS41-SGP 2020-08-07 13:15:43 49.4158 16.5961 284 ° 13 km/h 695 m -13.0 m/s Prostějov (CZ) 402.10 MHz Rájec-Jestřebí (CZ) 0.00 km UNKNOWN
R4421127 RS41-SGP 2020-08-07 13:15:28 -15.951 -47.5277 246 ° 41 km/h 1895 m -11.8 m/s Brasilia (BR) 404.001 MHz 0.00 km UNKNOWN
S0340681 RS41 2020-08-07 13:14:42 37.5861 12.4124 138 ° 33 km/h 85 m -10.5 m/s Trapani-Birgi (IT) 402.70 MHz Mazara del Vallo (IT) 0.00 km LOST
S0420908 RS41 2020-08-07 13:13:27 48.5775 8.76544 276 ° 15 km/h 935 m -10.8 m/s Stuttgart (DE) 404.50 MHz Nagold (DE) 0.00 km UNKNOWN
S2021375 RS41 2020-08-07 13:12:57 56.9573 3.75942 63 ° 56 km/h 12222 m -23.0 m/s Ekofisk (NO) 403.00 MHz 0.00 km UNKNOWN
R1250415 RS41 2020-08-07 13:11:01 53.7612 -0.43035 34 ° 63 km/h 3020 m -2.5 m/s Watnall (GB) 404.201 MHz Kingston-upon-Hull (GB) 0.00 km UNKNOWN
R3350614 RS41 2020-08-07 13:09:00 54.0436 13.2199 257 ° 30 km/h 318 m -4.5 m/s Greifswald (DE) 402.30 MHz Loitz (DE) 0.00 km FOUND
S0350538 RS41 2020-08-07 13:08:29 38.7329 8.81619 161 ° 50 km/h 5159 m -5.6 m/s Decimomannu (IT) 402.80 MHz Cagliari (IT) 0.00 km UNKNOWN
D19034226 DFM 2020-08-07 13:08:22 46.3425 19.2774 151 ° 20 km/h 404 m -14.3 m/s Szeged (HU) 402.008 MHz Jánoshalma (HU) 0.00 km UNKNOWN
R3340888 RS41 2020-08-07 13:07:54 53.7728 7.29496 283 ° 20 km/h 379 m -14.0 m/s Norderney (DE) 404.10 MHz Norderney (DE) 0.00 km UNKNOWN
ME9223058 M10 2020-08-07 13:06:32 43.51 4.40303 261 ° 46 km/h 26790 m 6.7 m/s Nîmes (FR) MHz Arles (FR) 0.00 km UNKNOWN
ME9222971 M10 2020-08-07 13:02:51 44.8996 19.6717 291 ° 65 km/h 5597 m -15.7 m/s Belgrade (RS) 402.800 MHz Sremska Mitrovica (RS) 0.00 km UNKNOWN
DF627072 DFM06 2020-08-07 13:02:04 46.3386 19.3229 277 ° 50 km/h 6362 m -16.4 m/s Szeged (HU) MHz Jánoshalma (HU) 0.00 km UNKNOWN
R3960168 RS41 2020-08-07 13:01:32 51.1045 16.4425 283 ° 20 km/h 1652 m -19.2 m/s Wrocław (PL) 403.00 MHz Środa Śląska (PL) 0.00 km UNKNOWN
R1130206 RS41 2020-08-07 13:00:34 43.9185 -3.66382 59 ° 30 km/h 13511 m -3.8 m/s Santander (ES) 401.50 MHz Santander (ES) 0.00 km UNKNOWN
R5131043 RS41 2020-08-07 12:59:52 49.9464 14.0456 277 ° 11 km/h 630 m -12.2 m/s Praha (CZ) 404.20 MHz Králův Dvůr (CZ) 0.00 km UNKNOWN
R4450051 RS41-SG 2020-08-07 12:57:57 44.8554 25.7177 269 ° 46 km/h 1603 m -8.9 m/s Bucarest (RO) 403.921 MHz Moreni (RO) 0.00 km UNKNOWN
S0440629 RS41 2020-08-07 12:56:36 44.2053 11.2056 219 ° 20 km/h 1093 m -15.0 m/s San Pietro Capofiume (IT) 404.60 MHz Bologna (IT) 0.00 km UNKNOWN
S1420705 RS41 2020-08-07 12:56:09 -34.9394 -57.6705 96 ° 54 km/h 25293 m 4.6 m/s Ezeiza (AR) 403.001 MHz 0.00 km UNKNOWN
ME9222A4A M10 2020-08-07 12:55:19 43.5162 21.317 262 ° 43 km/h 27927 m -54.8 m/s Niš (RS) 402.400 MHz Kruševac (RS) 0.00 km UNKNOWN
R2320750 RS41 2020-08-07 12:54:57 52.7414 9.76351 288 ° 15 km/h 872 m -19.9 m/s Bergen (DE) 405.70 MHz Bad Fallingbostel (DE) 0.00 km UNKNOWN
LMS6C3E5E LMS6 2020-08-07 12:53:57 41.3168 -90.6281 261 ° 31 km/h 26055 m -26.3 m/s 401.010 MHz 0.00 km UNKNOWN
R3240949 RS41 2020-08-07 12:52:56 43.8559 14.7966 205 ° 67 km/h 10617 m -22.6 m/s Zadar (HR) 403.00 MHz Zadar (HR) 0.00 km UNKNOWN
R2150842 RS41 2020-08-07 12:47:57 59.1782 5.95865 31 ° 50 km/h 9706 m -17.9 m/s Stavanger (NO) 403.001 MHz 0.00 km UNKNOWN
R0221022 RS41 2020-08-07 12:22:46 44.0678 7.24852 182 ° 31 km/h 6047 m -10.7 m/s Cuneo-Levaldigi (IT) 402.800 MHz Menton (FR) 0.00 km UNKNOWN
DF627060 DFM06 2020-08-07 11:48:36 46.3089 19.815 258 ° 69 km/h 11256 m 7.0 m/s Szeged (HU) MHz Mórahalom (HU) 0.00 km UNKNOWN
DF637F74 DFM06 2020-08-07 09:08:50 47.2772 10.5739 255 ° 6 km/h 2428 m -4.3 m/s Altenstadt (DE) MHz Füssen (DE) 0.00 km UNKNOWN
D17006452 DFM 2020-08-07 09:08:42 47.2773 10.574 244 ° 6 km/h 2468 m -4.2 m/s Altenstadt (DE) 402.507 MHz Füssen (DE) 0.00 km UNKNOWN
S1610473 RS41-SG 2020-08-07 07:55:58 51.1937 0.99031 356 ° 15 km/h 295 m -3.9 m/s Herstmonceux (GB) 404.783 MHz Canterbury (GB) 0.00 km UNKNOWN
R2830394 RS41 2020-08-07 07:52:57 51.2099 7.06562 31 ° 11 km/h 540 m -1.9 m/s Essen (DE) 405.30 MHz Haan (DE) 0.00 km UNKNOWN
S0220178 RS41 2020-08-07 07:34:51 49.8885 13.8945 253 ° 4 km/h 568 m -9.5 m/s Praha (CZ) 401.10 MHz Hořovice (CZ) 0.00 km UNKNOWN
Z2757034 RS92 2020-08-07 07:33:27 54.9902 25.9298 258 ° 9 km/h 20530 m 2.9 m/s 402.720 MHz Pabradė (LT) 0.00 km UNKNOWN
R2320758 RS41 2020-08-07 07:25:45 52.6823 9.61675 309 ° 7 km/h 116 m -6.1 m/s Bergen (DE) 405.70 MHz Rethem (DE) 0.00 km FOUND
DF67AB15 DFM06 2020-08-07 07:24:54 47.4767 10.6455 173 ° 35 km/h 6450 m -2.8 m/s Altenstadt (DE) MHz Füssen (DE) 0.00 km UNKNOWN
S0430446 RS41 2020-08-07 07:23:16 50.2641 9.98577 153 ° 13 km/h 550 m -3.3 m/s Meiningen (DE) 402.30 MHz Bad Kissingen (DE) 0.00 km UNKNOWN
D502549 DFM 2020-08-07 07:21:28 47.5036 10.64 187 ° 57 km/h 5641 m -7.7 m/s Altenstadt (DE) 402.010 MHz Füssen (DE) 0.00 km UNKNOWN
R2331127 RS41 2020-08-07 07:20:57 49.0256 11.2741 278 ° 22 km/h 1109 m -7.8 m/s Kümmersbruck (DE) 402.70 MHz Greding (DE) 0.00 km UNKNOWN
S0370193 RS41 2020-08-07 07:10:57 48.5423 8.63765 280 ° 31 km/h 1010 m -7.1 m/s Stuttgart (DE) 404.50 MHz Haiterbach (DE) 0.00 km UNKNOWN
R3710770 RS41 2020-08-07 07:10:46 52.1133 13.6026 255 ° 6 km/h 123 m -5.6 m/s Lindenberg (DE) 405.10 MHz Teupitz (DE) 0.00 km FOUND
S0651292 RS41 2020-08-07 07:10:28 60.6485 23.7746 47 ° 13 km/h 422 m -17.0 m/s Jokioinen (FI) 403.000 MHz Somero (FI) 0.00 km UNKNOWN
R2341067 RS41 2020-08-07 07:08:58 49.4737 6.9523 265 ° 17 km/h 582 m -10.9 m/s Idar-Oberstein (DE) 402.70 MHz Lebach (DE) 0.00 km UNKNOWN
S0441202 RS41 2020-08-07 07:05:45 47.8548 10.8861 276 ° 17 km/h 1088 m -5.3 m/s München (DE) 402.30 MHz Schongau (DE) 0.00 km UNKNOWN
R4410621 RS41 2020-08-07 07:04:58 42.9975 22.9914 251 ° 17 km/h 1166 m -13.1 m/s Sofia (BG) 405.301 MHz Berkovitsa (BG) 0.00 km UNKNOWN
ME9222AB0 M10 2020-08-07 06:28:46 44.8093 19.8382 269 ° 72 km/h 10400 m -21.0 m/s Belgrade (RS) 402.800 MHz Šabac (RS) 0.00 km UNKNOWN
ME022248E M10 2020-08-07 06:06:01 45.7922 14.0172 253 ° 65 km/h 1439 m -14.4 m/s Ljubljana (SI) 403.000 MHz Trieste (IT) 0.00 km UNKNOWN
P3421014 RS41 2020-08-07 05:48:41 47.3758 10.4876 297 ° 17 km/h 2362 m -5.1 m/s Altenstadt (DE) 402.50 MHz Sonthofen (DE) 0.00 km UNKNOWN
R4920259 RS41-SG 2020-08-07 05:37:58 -34.9524 138.52 55 ° 0 km/h 5 m 0.4 m/s Adelaide (AU) 401.501 MHz Adelaide (AU) 0.00 km UNKNOWN
D19031757 DFM 2020-08-07 04:29:40 56.32 9.40123 336 ° 20 km/h 233 m -12.6 m/s Karup (DK) 401.869 MHz Kjellerup (DK) 0.00 km UNKNOWN
R5140555 RS41 2020-08-07 04:16:45 46.7052 14.7719 234 ° 2 km/h 711 m -8.7 m/s Graz (AT) 404.70 MHz Sankt Andrä (AT) 0.00 km FOUND
R5140396 RS41 2020-08-07 04:02:31 47.9825 13.7426 62 ° 2 km/h 552 m -5.3 m/s Linz (AT) 405.10 MHz Vöcklabruck (AT) 0.00 km UNKNOWN
R2510203 RS41 2020-08-07 03:36:38 46.9158 11.223 201 ° 20 km/h 3842 m -4.6 m/s Innsbruck (AT) 405.50 MHz Innsbruck (AT) 0.00 km UNKNOWN
M5020212 RS41 2020-08-07 03:27:58 60.9429 27.5161 126 ° 22 km/h 2408 m -20.3 m/s 403.000 MHz Lappeenranta (FI) 0.00 km UNKNOWN
R3710832 RS41 2020-08-07 02:58:42 52.1844 13.6298 300 ° 0 km/h 88 m -0.0 m/s Lindenberg (DE) 405.10 MHz Teupitz (DE) 0.00 km FOUND
S1240748 RS41 2020-08-07 02:09:02 48.0519 15.442 231 ° 2 km/h 578 m -7.0 m/s Vienna (AT) 403.50 MHz Sankt Pölten (AT) 0.00 km FOUND
R4320544 RS41 2020-08-07 02:08:58 -25.7893 -48.8605 230 ° 19 km/h 2780 m -2.5 m/s 403.002 MHz 0.00 km UNKNOWN
S1640224 RS41 2020-08-07 02:01:28 51.1423 0.98811 254 ° 6 km/h 150 m -3.2 m/s Herstmonceux (GB) 404.783 MHz Canterbury (GB) 0.00 km UNKNOWN
R2740499 RS41-SGP 2020-08-07 01:55:05 54.4999 9.71804 349 ° 20 km/h 74 m -2.2 m/s Schleswig (DE) 402.50 MHz Eckernförde (DE) 0.00 km FOUND
S0350275 RS41 2020-08-07 01:54:38 44.7763 8.80326 243 ° 13 km/h 625 m -3.1 m/s Milano-Linate (IT) 404.80 MHz Alessandria (IT) 0.00 km UNKNOWN
ME972636E M10 2020-08-07 01:54:30 41.1967 8.31008 169 ° 78 km/h 9164 m -7.2 m/s Ajaccio (FR) MHz Sassari (IT) 0.00 km UNKNOWN
N4710527 RS41 2020-08-07 01:54:29 46.3241 6.60474 116 ° 13 km/h 2185 m -2.3 m/s Payerne (CH) 403.50 MHz Thonon-les-Bains (FR) 0.00 km UNKNOWN
S0370195 RS41 2020-08-07 01:52:58 48.4352 8.61293 290 ° 28 km/h 891 m -3.6 m/s Stuttgart (DE) 404.50 MHz Horb am Neckar (DE) 0.00 km UNKNOWN
R3340294 RS41 2020-08-07 01:48:10 53.7397 7.34534 302 ° 26 km/h 156 m -4.0 m/s Norderney (DE) 405.30 MHz Norderney (DE) 0.00 km UNKNOWN
R3450405 RS41 2020-08-07 01:47:43 41.1191 11.807 163 ° 15 km/h 330 m -10.0 m/s Pratica di Mare (IT) 404.20 MHz Anzio (IT) 0.00 km UNKNOWN
S0351082 RS41 2020-08-07 01:42:55 40.3456 17.5488 162 ° 17 km/h 2811 m -6.5 m/s Brindisi (IT) 402.70 MHz Taranto (IT) 0.00 km UNKNOWN
S1520847 RS41-SGP 2020-08-07 01:41:47 47.5162 18.4929 261 ° 28 km/h 570 m -6.8 m/s Budapest (HU) 403.00 MHz Tatabánya (HU) 0.00 km FOUND
S0351202 RS41 2020-08-07 01:39:29 38.538 8.83345 155 ° 48 km/h 5158 m -4.1 m/s Decimomannu (IT) 402.80 MHz Cagliari (IT) 0.00 km UNKNOWN
ME96228D8 M10 2020-08-07 01:35:28 48.6638 2.01699 172 ° 7 km/h 2551 m -9.5 m/s Trappes (FR) 401.000 MHz Gif-sur-Yvette (FR) 0.00 km UNKNOWN
S0340674 RS41 2020-08-07 01:34:12 37.4669 12.4016 159 ° 20 km/h 69 m -5.3 m/s Trapani-Birgi (IT) 402.70 MHz Mazara del Vallo (IT) 0.00 km LOST
R0350066 RS41-SGP 2020-08-07 01:33:38 49.0842 19.5691 320 ° 15 km/h 2656 m -10.8 m/s Poprad (SK) 400.60 MHz Liptovský Mikuláš (SK) 0.00 km UNKNOWN
R4520664 RS41 2020-08-07 01:33:15 52.1453 5.2003 282 ° 22 km/h 103 m -13.6 m/s De Bilt (NL) 403.90 MHz Utrecht (NL) 0.00 km FOUND
R2331403 RS41 2020-08-07 01:33:01 49.149 11.159 296 ° 9 km/h 1290 m -12.2 m/s Kümmersbruck (DE) 402.70 MHz Heideck (DE) 0.00 km UNKNOWN
R3440526 RS41 2020-08-07 01:32:53 45.5602 12.2934 219 ° 13 km/h 506 m -4.0 m/s Udine-Rivolto (IT) 404.00 MHz Treviso (IT) 0.00 km UNKNOWN
S2020923 RS41 2020-08-07 01:31:17 52.1708 23.3229 297 ° 35 km/h 459 m -12.4 m/s Brest (BY) 405.30 MHz Biała Podlaska (PL) 0.00 km UNKNOWN
R2330679 RS41 2020-08-07 01:31:07 49.4395 6.9773 283 ° 19 km/h 521 m -6.5 m/s Idar-Oberstein (DE) 402.70 MHz Lebach (DE) 0.00 km UNKNOWN
S0220164 RS41 2020-08-07 01:26:06 49.9037 13.9663 256 ° 6 km/h 517 m -9.6 m/s Praha (CZ) 401.10 MHz Králův Dvůr (CZ) 0.00 km UNKNOWN
S1610276 RS41 2020-08-07 01:25:29 55.7147 -1.39129 27 ° 67 km/h 6883 m -4.8 m/s Albemarle (GB) 404.40 MHz Newcastle-upon-Tyne (GB) 0.00 km UNKNOWN
R4430543 RS41 2020-08-07 01:25:00 52.4444 20.5183 276 ° 28 km/h 200 m -11.2 m/s Legionowo (PL) 404.50 MHz Zakroczym (PL) 0.00 km UNKNOWN
R1020149 RS41 2020-08-07 01:23:28 40.908 -3.48915 359 ° 9 km/h 1246 m -2.9 m/s Madrid (ES) 403.000 MHz Guadalajara (ES) 0.00 km UNKNOWN
S0651293 RS41-SG 2020-08-07 01:22:58 60.6356 24.0647 89 ° 15 km/h 247 m -12.7 m/s Jokioinen (FI) 403.000 MHz Karkkila (FI) 0.00 km UNKNOWN
R4220841 RS41 2020-08-07 01:21:56 54.7866 17.4098 156 ° 7 km/h 101 m -3.9 m/s Łeba (PL) 403.00 MHz Łeba (PL) 0.00 km UNKNOWN
S0540807 RS41 2020-08-07 01:21:13 59.2211 25.1527 186 ° 9 km/h 116 m -10.4 m/s Tallinn (EE) 404.000 MHz Kehra (EE) 0.00 km FOUND
S0430170 RS41 2020-08-07 01:20:33 50.2788 9.925 245 ° 20 km/h 703 m -15.7 m/s Meiningen (DE) 402.30 MHz Bad Brückenau (DE) 0.00 km UNKNOWN
R4441043 RS41 2020-08-07 01:19:58 44.9024 25.5654 298 ° 46 km/h 4904 m -19.4 m/s Bucarest (RO) 403.921 MHz Târgoviște (RO) 0.00 km UNKNOWN
D19034091 DFM 2020-08-07 01:16:46 46.3367 19.2578 293 ° 50 km/h 4691 m -14.0 m/s Szeged (HU) 402.490 MHz Jánoshalma (HU) 0.00 km UNKNOWN
LMS6C3DBB LMS6 2020-08-07 01:16:28 41.3301 -90.5404 219 ° 43 km/h 18456 m -8.9 m/s 401.008 MHz 0.00 km UNKNOWN
DF626FEB DFM06 2020-08-07 01:16:14 46.3337 19.2694 277 ° 33 km/h 5671 m -13.5 m/s Szeged (HU) MHz Jánoshalma (HU) 0.00 km UNKNOWN
R2320748 RS41 2020-08-07 01:15:24 52.6665 9.74934 313 ° 24 km/h 181 m -12.3 m/s Bergen (DE) 405.70 MHz Burgwedel (DE) 0.00 km UNKNOWN
S0440708 RS41 2020-08-07 01:14:41 47.9973 10.9663 285 ° 20 km/h 831 m -2.8 m/s München (DE) 402.30 MHz Landsberg am Lech (DE) 0.00 km FOUND
P1930493 RS41 2020-08-07 01:13:44 49.3639 16.5094 195 ° 17 km/h 497 m -13.5 m/s Prostějov (CZ) 402.10 MHz Tišnov (CZ) 0.00 km UNKNOWN
S1620430 RS41-SG 2020-08-07 01:12:59 55.2953 -5.89085 23 ° 96 km/h 15509 m -5.2 m/s 404.201 MHz Ballycastle (IE) 0.00 km UNKNOWN
R2830533 RS41 2020-08-07 01:11:37 51.3091 6.81588 352 ° 20 km/h 594 m -12.7 m/s Essen (DE) 405.30 MHz Ratingen (DE) 0.00 km LOST
P3610260 RS41 2020-08-07 01:09:46 24.7287 120.415 336 ° 11 km/h 3413 m -12.6 m/s New Taipei (TW) 400.30 MHz 0.00 km UNKNOWN
R3710327 RS41 2020-08-07 01:09:28 -34.989 138.324 336 ° 28 km/h 7 m -5.9 m/s Adelaide (AU) 401.501 MHz Adelaide (AU) 0.00 km UNKNOWN
R3960158 RS41 2020-08-07 01:09:23 51.0899 16.4021 300 ° 24 km/h 875 m -13.6 m/s Wrocław (PL) 403.00 MHz Strzegom (PL) 0.00 km FOUND
R1250416 RS41 2020-08-07 01:08:28 53.4359 -0.69906 45 ° 39 km/h 2094 m -11.0 m/s Watnall (GB) 404.201 MHz Lincoln (GB) 0.00 km UNKNOWN
R3251049 RS41 2020-08-07 01:06:03 45.6292 15.3408 242 ° 28 km/h 1403 m -14.3 m/s Zagreb (HR) 402.00 MHz Ozalj (HR) 0.00 km FOUND
R1130215 RS41-SGP 2020-08-07 01:04:09 43.8489 -3.63086 40 ° 59 km/h 10222 m -7.8 m/s Santander (ES) 401.50 MHz Santander (ES) 0.00 km UNKNOWN
R2750811 RS41 2020-08-07 01:01:00 54.0352 13.1949 328 ° 24 km/h 354 m -16.4 m/s Greifswald (DE) 402.30 MHz Loitz (DE) 0.00 km FOUND
R3240955 RS41 2020-08-07 01:00:44 43.8565 14.7477 190 ° 13 km/h 14743 m -36.9 m/s Zadar (HR) 403.00 MHz Zadar (HR) 0.00 km UNKNOWN
ME9222A6A M10 2020-08-07 01:00:10 43.4998 21.2876 275 ° 59 km/h 32591 m -57.7 m/s Niš (RS) 402.400 MHz Kruševac (RS) 0.00 km UNKNOWN
R3610548 2020-08-07 00:59:58 -22.9459 -43.096 119 ° 28 km/h 11851 m -3.5 m/s 405.301 MHz 0.00 km UNKNOWN
ME9222AA8 M10 2020-08-07 00:55:10 44.8554 19.5933 281 ° 56 km/h 5798 m -18.3 m/s Belgrade (RS) 402.800 MHz Bogatić (RS) 0.00 km UNKNOWN
R2150291 RS41 2020-08-07 00:54:28 59.0201 5.97428 48 ° 30 km/h 4274 m -13.9 m/s Stavanger (NO) 403.001 MHz 0.00 km UNKNOWN
S0440840 RS41-SGP 2020-08-07 00:53:44 44.272 11.2434 186 ° 52 km/h 8879 m -20.9 m/s San Pietro Capofiume (IT) 404.60 MHz Bologna (IT) 0.00 km UNKNOWN
R1930126 RS41 2020-08-07 00:52:50 43.966 7.3305 189 ° 31 km/h 4835 m -5.5 m/s Cuneo-Levaldigi (IT) 402.800 MHz Menton (FR) 0.00 km UNKNOWN
R4820766 RS41-SG 2020-08-07 00:49:58 -33.1544 152.896 116 ° 144 km/h 10299 m -25.4 m/s 402.401 MHz Nelson Bay (AU) 0.00 km UNKNOWN
R3761012 RS41 2020-08-07 00:18:28 -31.0861 137.182 61 ° 31 km/h 21576 m 5.2 m/s 401.501 MHz 0.00 km UNKNOWN
DF63B755 DFM06 2020-08-07 00:07:49 36.3785 10.6603 149 ° 35 km/h 2399 m -9.1 m/s Tunis (TN) MHz 0.00 km UNKNOWN
IMET7E498 IMET 2020-08-07 00:07:39 50.7546 4.94966 0 ° 0 km/h 10483 m 0.0 m/s Beauvechain (BE) 402.996 MHz Tienen (BE) 0.00 km UNKNOWN
IMET88565 iMET 2020-08-07 00:07:06 50.7546 4.94945 84 ° 26 km/h 10495 m -5.5 m/s Beauvechain (BE) 402.999 MHz Tienen (BE) 0.00 km UNKNOWN
R4450317 RS41 2020-08-06 20:53:07 40.1908 15.2247 185 ° 83 km/h 7991 m -13.1 m/s Potenza (IT) 405.20 MHz Battipaglia (IT) 0.00 km UNKNOWN
R2331401 RS41 2020-08-06 19:41:17 49.2183 11.3547 260 ° 20 km/h 1109 m -3.9 m/s Kümmersbruck (DE) 402.70 MHz Freystadt (DE) 0.00 km UNKNOWN
R2330686 RS41 2020-08-06 19:22:47 49.4758 7.01949 281 ° 22 km/h 576 m -10.0 m/s Idar-Oberstein (DE) 402.70 MHz St. Wendel (DE) 0.00 km UNKNOWN
R0350064 RS41-SGP 2020-08-06 19:21:49 49.0519 19.5765 314 ° 9 km/h 2678 m -14.0 m/s Poprad (SK) 400.60 MHz Liptovský Mikuláš (SK) 0.00 km UNKNOWN
S0650878 RS41 2020-08-06 19:20:58 60.6405 24.3072 58 ° 11 km/h 262 m -13.6 m/s Jokioinen (FI) 403.000 MHz Karkkila (FI) 0.00 km UNKNOWN
R2320747 RS41 2020-08-06 19:20:51 52.6752 9.84692 301 ° 19 km/h 279 m -9.0 m/s Bergen (DE) 405.70 MHz Celle (DE) 0.00 km UNKNOWN
R3820522 RS41 2020-08-06 19:02:18 52.2141 13.8472 286 ° 20 km/h 118 m -5.0 m/s Lindenberg (DE) 405.10 MHz Storkow (DE) 0.00 km FOUND
ME9222AA2 M10 2020-08-06 18:53:44 44.8802 19.6965 272 ° 37 km/h 4395 m -16.4 m/s Belgrade (RS) 402.800 MHz Sremska Mitrovica (RS) 0.00 km UNKNOWN
S1510392 RS41 2020-08-06 17:54:41 54.1535 13.4516 298 ° 15 km/h 530 m -7.0 m/s Greifswald (DE) 404.40 MHz Greifswald (DE) 0.00 km UNKNOWN
P1850526 RS41-SG 2020-08-06 17:50:58 58.5885 4.38452 141 ° 9 km/h 25410 m 6.5 m/s 405.001 MHz 0.00 km UNKNOWN
P3421019 RS41 2020-08-06 17:48:02 47.6507 10.6416 231 ° 15 km/h 944 m -5.4 m/s Altenstadt (DE) 402.50 MHz Füssen (DE) 0.00 km UNKNOWN
ME96228D7 M10 2020-08-06 14:41:28 48.9032 2.19626 23 ° 13 km/h 961 m -6.5 m/s Trappes (FR) 400.999 MHz Nanterre (FR) 0.00 km UNKNOWN
S1640233 RS41 2020-08-06 14:10:58 51.2972 0.810139 340 ° 22 km/h 312 m -1.6 m/s Herstmonceux (GB) 404.783 MHz Canterbury (GB) 0.00 km UNKNOWN
R2740501 RS41 2020-08-06 14:09:47 54.789 10.2442 32 ° 26 km/h 735 m -2.1 m/s Schleswig (DE) 402.50 MHz Kappeln (DE) 0.00 km UNKNOWN
DF67AB70 DFM06 2020-08-06 14:08:57 47.4937 10.763 54 ° 7 km/h 1407 m -12.5 m/s Altenstadt (DE) MHz Füssen (DE) 0.00 km UNKNOWN
D502640 DFM 2020-08-06 14:08:26 47.4938 10.7634 233 ° 7 km/h 1802 m -13.2 m/s Altenstadt (DE) 402.010 MHz Füssen (DE) 0.00 km UNKNOWN
R3610465 2020-08-06 14:07:58 -22.9395 -43.4104 279 ° 13 km/h 3705 m -2.3 m/s 405.300 MHz 0.00 km UNKNOWN
R3740707 RS41 2020-08-06 13:58:58 53.5794 -0.335659 26 ° 26 km/h 2546 m -1.7 m/s Watnall (GB) 404.202 MHz Kingston-upon-Hull (GB) 0.00 km UNKNOWN
ME0123047 M10 2020-08-06 13:58:34 48.2032 15.5474 257 ° 11 km/h 353 m -7.9 m/s Vienna (AT) 401.000 MHz Sankt Pölten (AT) 0.00 km FOUND
S0350376 RS41 2020-08-06 13:57:03 38.5837 8.95834 168 ° 46 km/h 4706 m -2.7 m/s Decimomannu (IT) 402.80 MHz Cagliari (IT) 0.00 km UNKNOWN
S1520863 RS41 2020-08-06 13:56:20 47.5014 18.0763 165 ° 11 km/h 381 m -13.3 m/s Budapest (HU) 403.00 MHz Kisbér (HU) 0.00 km FOUND
LMS608F2D MK2LMS 2020-08-06 13:51:58 43.4203 -77.8512 109 ° 46 km/h 3853 m -4.1 m/s MHz 0.00 km UNKNOWN
R1020154 RS41-SGP 2020-08-06 13:45:28 40.7562 -3.33461 349 ° 9 km/h 1339 m -5.0 m/s Madrid (ES) 403.000 MHz Guadalajara (ES) 0.00 km UNKNOWN
R3440773 RS41 2020-08-06 13:40:22 41.1066 11.8777 143 ° 26 km/h 251 m -8.3 m/s Pratica di Mare (IT) 404.20 MHz Anzio (IT) 0.00 km UNKNOWN
R3751777 RS41-Ozone 2020-08-06 13:39:38 52.1595 5.37653 36 ° 7 km/h 1010 m -11.1 m/s De Bilt (NL) 403.901 MHz Amersfoort (NL) 0.00 km UNKNOWN
S0220180 RS41 2020-08-06 13:37:14 49.9863 13.979 167 ° 0 km/h 426 m -0.1 m/s Praha (CZ) 404.20 MHz Králův Dvůr (CZ) 0.00 km UNKNOWN
ME972236B M10 2020-08-06 13:36:52 41.5165 8.45927 181 ° 37 km/h 3100 m -11.3 m/s Ajaccio (FR) MHz Ajaccio (FR) 0.00 km UNKNOWN
R3440522 RS41 2020-08-06 13:33:02 45.6123 12.2825 333 ° 4 km/h 256 m -6.6 m/s Udine-Rivolto (IT) 404.00 MHz Treviso (IT) 0.00 km UNKNOWN
D19034067 DFM 2020-08-06 13:31:59 46.3609 19.1452 225 ° 28 km/h 1819 m -12.0 m/s Szeged (HU) 402.495 MHz Hajós (HU) 0.00 km UNKNOWN
S0430447 RS41 2020-08-06 13:31:58 50.5092 10.0577 347 ° 11 km/h 974 m -4.5 m/s Meiningen (DE) 402.30 MHz Fladungen (DE) 0.00 km FOUND
R3710423 RS41-SG 2020-08-06 13:30:59 -35.2892 138.679 273 ° 61 km/h 1242 m -6.2 m/s Adelaide (AU) 401.501 MHz Victor Harbor (AU) 0.00 km UNKNOWN
DF626FD3 DFM06 2020-08-06 13:27:51 46.362 19.1822 279 ° 54 km/h 5337 m -12.8 m/s Szeged (HU) MHz Hajós (HU) 0.00 km UNKNOWN
R3310891 RS41 2020-08-06 13:25:51 45.686 15.1255 257 ° 41 km/h 2283 m -13.0 m/s Zagreb (HR) 402.00 MHz Novo Mesto (SI) 0.00 km FOUND
R4410941 RS41-SG 2020-08-06 13:23:28 43.2671 22.9908 270 ° 31 km/h 2417 m -11.4 m/s Sofia (BG) 405.302 MHz Berkovitsa (BG) 0.00 km UNKNOWN
R4320352 RS41 2020-08-06 13:22:58 50.8553 6.51551 38 ° 7 km/h 1504 m -5.0 m/s Essen (DE) 403.91 MHz Düren (DE) 0.00 km UNKNOWN
P3610246 RS41 2020-08-06 13:22:57 24.6533 120.524 126 ° 11 km/h 511 m -9.0 m/s New Taipei (TW) 400.30 MHz 0.00 km UNKNOWN
R4421013 RS41 2020-08-06 13:21:58 -15.98 -47.4582 261 ° 35 km/h 1652 m -3.4 m/s Brasilia (BR) 403.001 MHz 0.00 km UNKNOWN
R4350829 RS41 2020-08-06 13:21:33 54.8825 17.4209 333 ° 20 km/h 994 m -11.7 m/s Łeba (PL) 403.00 MHz Łeba (PL) 0.00 km UNKNOWN
N4710488 RS41 2020-08-06 13:21:09 46.471 6.69116 198 ° 15 km/h 1373 m -3.5 m/s Payerne (CH) 403.50 MHz Lutry (CH) 0.00 km UNKNOWN
S0340957 RS41 2020-08-06 13:20:34 37.3096 12.8024 121 ° 31 km/h 59 m -10.7 m/s Trapani-Birgi (IT) 402.70 MHz Mazara del Vallo (IT) 0.00 km LOST
S1420703 RS41-SG 2020-08-06 13:19:59 -35.2433 -57.2171 124 ° 157 km/h 10300 m -21.3 m/s Ezeiza (AR) 402.975 MHz 0.00 km UNKNOWN
R4420045 RS41 2020-08-06 13:16:17 52.5516 20.7033 250 ° 19 km/h 230 m -11.3 m/s Legionowo (PL) 404.50 MHz Nasielsk (PL) 0.00 km UNKNOWN
R0350063 RS41 2020-08-06 13:16:10 49.1488 19.6161 307 ° 22 km/h 2219 m -13.8 m/s Poprad (SK) 400.60 MHz Liptovský Mikuláš (SK) 0.00 km UNKNOWN
S0351086 RS41 2020-08-06 13:15:55 40.699 17.7281 115 ° 17 km/h 4925 m -10.1 m/s Brindisi (IT) 402.70 MHz Brindisi (IT) 0.00 km UNKNOWN
S0370198 RS41 2020-08-06 13:12:38 48.7219 8.7977 347 ° 11 km/h 686 m -5.0 m/s Stuttgart (DE) 404.50 MHz Calw (DE) 0.00 km UNKNOWN
R4441026 RS41-SG 2020-08-06 13:12:28 44.9695 25.6992 257 ° 54 km/h 2055 m -18.7 m/s Bucarest (RO) 403.921 MHz Moreni (RO) 0.00 km UNKNOWN
S0650880 RS41 2020-08-06 13:11:05 60.7289 24.5491 51 ° 20 km/h 279 m -15.3 m/s Jokioinen (FI) 403.000 MHz Riihimäki (FI) 0.00 km UNKNOWN
R2820419 RS41 2020-08-06 13:10:13 51.3932 7.00082 352 ° 9 km/h 478 m -2.8 m/s Essen (DE) 405.30 MHz Velbert (DE) 0.00 km FOUND
R3951156 RS41 2020-08-06 13:09:46 51.162 16.4211 248 ° 11 km/h 425 m -14.5 m/s Wrocław (PL) 403.00 MHz Środa Śląska (PL) 0.00 km UNKNOWN
P1850146 RS41 2020-08-06 13:09:30 49.487 16.5777 242 ° 17 km/h 681 m -12.7 m/s Prostějov (CZ) 402.10 MHz Kunštát (CZ) 0.00 km UNKNOWN
R2331195 RS41 2020-08-06 13:09:18 49.385 11.4263 265 ° 9 km/h 1082 m -10.8 m/s Kümmersbruck (DE) 402.700 MHz Altdorf bei Nürnberg (DE) 0.00 km FOUND
S0341809 RS41 2020-08-06 13:08:19 45.2615 8.92726 251 ° 11 km/h 1878 m -11.2 m/s Milano-Linate (IT) 404.80 MHz Vigevano (IT) 0.00 km UNKNOWN
ME9222A29 M10 2020-08-06 13:06:09 43.7105 21.2764 320 ° 70 km/h 8623 m -19.8 m/s Niš (RS) 402.400 MHz Varvarin (RS) 0.00 km UNKNOWN
S0440721 RS41 2020-08-06 13:05:33 48.1268 11.0706 272 ° 28 km/h 765 m -7.2 m/s München (DE) 402.30 MHz Fürstenfeldbruck (DE) 0.00 km FOUND
R2321743 RS41 2020-08-06 13:04:47 49.5458 7.06161 287 ° 19 km/h 929 m -13.9 m/s Idar-Oberstein (DE) 402.70 MHz St. Wendel (DE) 0.00 km UNKNOWN
S0441059 RS41 2020-08-06 13:01:00 54.2892 13.4538 351 ° 17 km/h 881 m -12.2 m/s Greifswald (DE) 402.30 MHz Garz (DE) 0.00 km UNKNOWN
R3250346 RS41 2020-08-06 13:00:59 43.9604 14.7187 200 ° 43 km/h 13240 m -26.3 m/s Zadar (HR) 403.00 MHz Zadar (HR) 0.00 km UNKNOWN
S0410122 RS41 2020-08-06 13:00:53 44.2725 11.2083 190 ° 57 km/h 10278 m -15.5 m/s San Pietro Capofiume (IT) 404.60 MHz Bologna (IT) 0.00 km UNKNOWN
R2320746 RS41 2020-08-06 13:00:27 52.9087 10.0042 44 ° 9 km/h 1965 m -9.9 m/s Bergen (DE) 405.70 MHz Munster (DE) 0.00 km UNKNOWN
R3710830 RS41 2020-08-06 12:59:47 52.3034 13.8161 300 ° 20 km/h 122 m -3.8 m/s Lindenberg (DE) 405.10 MHz Storkow (DE) 0.00 km FOUND
R3340659 RS41 2020-08-06 12:59:46 53.7758 7.49053 37 ° 31 km/h 2577 m -10.2 m/s Norderney (DE) 404.10 MHz Norderney (DE) 0.00 km UNKNOWN
R1130234 RS41 2020-08-06 12:59:45 43.7269 -3.40835 62 ° 26 km/h 6618 m -6.7 m/s Santander (ES) 401.50 MHz Santander (ES) 0.00 km UNKNOWN
R2950211 RS41 2020-08-06 12:59:15 56.6649 3.82112 42 ° 33 km/h 16087 m -39.2 m/s Ekofisk (NO) 403.00 MHz 0.00 km UNKNOWN
ME9222ACA M10 2020-08-06 12:56:12 44.9523 19.8651 237 ° 35 km/h 1550 m -14.1 m/s Belgrade (RS) 402.800 MHz Ruma (RS) 0.00 km UNKNOWN
R2150357 RS41 2020-08-06 12:53:28 59.0326 5.90823 52 ° 13 km/h 4478 m -19.7 m/s Stavanger (NO) 403.001 MHz 0.00 km UNKNOWN
ME922306E M10 2020-08-06 12:49:58 43.5206 4.40555 274 ° 72 km/h 28235 m 7.0 m/s Nîmes (FR) 402.001 MHz Arles (FR) 0.00 km UNKNOWN
D20039082 DFM17 2020-08-06 12:49:48 53.8462 10.2835 19 ° 19 km/h 158 m -12.1 m/s Pinneberg (DE) 402.010 MHz Bad Oldesloe (DE) 0.00 km FOUND
S1940948 RS41-SG 2020-08-06 12:47:58 56.6183 25.4127 75 ° 41 km/h 7122 m -20.9 m/s Skriveri (LV) 403.000 MHz Biržai (LT) 0.00 km UNKNOWN
R1930132 RS41 2020-08-06 12:45:14 44.1453 7.35442 186 ° 41 km/h 4365 m -4.9 m/s Cuneo-Levaldigi (IT) 402.80 MHz Cuneo (IT) 0.00 km UNKNOWN
DF61C5AA DFM06 2020-08-06 12:40:02 53.8194 10.2662 276 ° 11 km/h 23370 m 4.4 m/s Sasel (DE) MHz Bad Oldesloe (DE) 0.00 km UNKNOWN
P3421065 RS41 2020-08-06 11:13:00 52.7275 7.73126 65 ° 9 km/h 117 m -14.7 m/s Meppen (DE) 404.50 MHz Löningen (DE) 0.00 km NEED ATTENTION
P3421006 RS41 2020-08-06 11:09:50 47.6562 10.7984 210 ° 17 km/h 975 m -6.5 m/s Altenstadt (DE) 402.50 MHz Füssen (DE) 0.00 km UNKNOWN
D19033142 DFM09 2020-08-06 10:29:10 53.6737 9.80889 297 ° 2 km/h 49 m 0.0 m/s Pinneberg (DE) MHz Pinneberg (DE) 0.00 km UNKNOWN
D19032828 DFM09 2020-08-06 10:21:30 53.6737 9.80892 291 ° 2 km/h 35 m 0.0 m/s Pinneberg (DE) MHz Pinneberg (DE) 0.00 km UNKNOWN
S0440598 RS41 2020-08-06 09:37:43 52.2628 13.6196 162 ° 4 km/h 85 m -0.5 m/s Lindenberg (DE) 405.10 MHz Königs Wusterhausen (DE) 0.00 km FOUND
S3130909 RS41 2020-08-06 09:15:43 60.0773 26.0839 52 ° 31 km/h 1008 m -7.4 m/s Vaisala Oyj (FI) 402.000 MHz Porvoo (FI) 0.00 km UNKNOWN
S3130333 RS41 2020-08-06 09:15:28 60.0767 26.082 64 ° 30 km/h 1123 m -7.6 m/s Vaisala Oyj (FI) 402.700 MHz Porvoo (FI) 0.00 km UNKNOWN
DF67AAC8 DFM06 2020-08-06 09:05:22 47.674 10.9386 230 ° 7 km/h 1263 m -11.7 m/s Hohenpeissenberg (DE) MHz Schongau (DE) 0.00 km UNKNOWN
D502472 DFM 2020-08-06 09:02:05 47.6747 10.9471 250 ° 13 km/h 3832 m -14.3 m/s Hohenpeissenberg (DE) 404.408 MHz Schongau (DE) 0.00 km UNKNOWN
R2330973 RS41 2020-08-06 08:52:05 52.8026 7.80118 26 ° 17 km/h 296 m -9.2 m/s Meppen (DE) 405.10 MHz Löningen (DE) 0.00 km FOUND
D17052471 DFM09 2020-08-06 08:24:58 47.5864 10.8048 227 ° 24 km/h 4185 m -4.3 m/s Altenstadt (DE) 402.048 MHz Füssen (DE) 0.00 km UNKNOWN
DF643337 DFM06 2020-08-06 08:09:26 47.6255 10.8258 187 ° 17 km/h 8805 m -5.7 m/s Altenstadt (DE) MHz Füssen (DE) 0.00 km UNKNOWN
S0420913 RS41 2020-08-06 07:46:58 48.7057 8.76167 268 ° 15 km/h 625 m -2.3 m/s Stuttgart (DE) 404.50 MHz Calw (DE) 0.00 km UNKNOWN
R2320671 RS41 2020-08-06 07:40:28 52.9921 10.0193 23 ° 15 km/h 982 m -4.2 m/s Bergen (DE) 405.70 MHz Munster (DE) 0.00 km UNKNOWN
R5121154 RS41 2020-08-06 07:27:14 49.9046 13.9339 247 ° 6 km/h 503 m -10.8 m/s Praha (CZ) 401.10 MHz Hořovice (CZ) 0.00 km UNKNOWN
R2820582 RS41 2020-08-06 07:25:27 51.3471 7.12532 11 ° 22 km/h 345 m -4.2 m/s Essen (DE) 405.30 MHz Velbert (DE) 0.00 km UNKNOWN
S0430183 RS41 2020-08-06 07:24:15 50.546 10.1819 49 ° 7 km/h 813 m -3.5 m/s Meiningen (DE) 402.30 MHz Fladungen (DE) 0.00 km UNKNOWN
R4410793 RS41-SG 2020-08-06 07:14:28 43.173 23.1567 275 ° 28 km/h 1938 m -15.3 m/s Sofia (BG) 405.302 MHz Berkovitsa (BG) 0.00 km UNKNOWN
S0651240 RS41-SG 2020-08-06 07:13:58 60.641 24.4809 352 ° 24 km/h 283 m -16.2 m/s Jokioinen (FI) 403.000 MHz Riihimäki (FI) 0.00 km UNKNOWN
S0370473 RS41 2020-08-06 07:12:50 48.0132 11.1066 269 ° 15 km/h 880 m -3.6 m/s München (DE) 402.30 MHz Starnberg (DE) 0.00 km UNKNOWN
R2330682 RS41 2020-08-06 07:11:49 49.5707 7.09086 301 ° 33 km/h 1043 m -12.4 m/s Idar-Oberstein (DE) 402.70 MHz St. Wendel (DE) 0.00 km UNKNOWN
S1810465 RS41-SGP 2020-08-06 07:11:28 41.0522 23.002 265 ° 106 km/h 27279 m -16.1 m/s Thessaloniki (GR) 403.00 MHz Bansko (BG) 0.00 km UNKNOWN
R2331196 RS41 2020-08-06 07:03:39 49.3103 11.4448 282 ° 17 km/h 855 m -15.2 m/s Kümmersbruck (DE) 402.700 MHz Neumarkt in der Oberpfalz (DE) 0.00 km UNKNOWN
ME9222ACE M10 2020-08-06 07:01:05 45.0037 19.712 298 ° 37 km/h 2174 m -16.0 m/s Belgrade (RS) 402.800 MHz Sremska Mitrovica (RS) 0.00 km UNKNOWN
ME02223EF M10 2020-08-06 06:27:02 45.6538 13.8577 251 ° 44 km/h 1220 m -9.1 m/s Ljubljana (SI) 403.000 MHz Trieste (IT) 0.00 km UNKNOWN
R2330971 RS41 2020-08-06 05:50:16 52.8111 8.04097 43 ° 22 km/h 523 m -4.0 m/s Meppen (DE) 404.50 MHz Cloppenburg (DE) 0.00 km FOUND
S1720587 RS41 2020-08-06 05:49:58 52.5074 -3.18732 29 ° 22 km/h 1258 m -2.7 m/s Aberporth (GB) 405.602 MHz Hereford (GB) 0.00 km UNKNOWN
P3421008 RS41 2020-08-06 05:25:48 47.5534 10.8319 233 ° 4 km/h 1836 m -3.9 m/s Altenstadt (DE) 402.50 MHz Füssen (DE) 0.00 km UNKNOWN
D19031766 DFM 2020-08-06 04:53:42 56.6295 9.62396 1 ° 41 km/h 227 m -9.3 m/s Karup (DK) 401.869 MHz Hobro (DK) 0.00 km UNKNOWN
R5140556 RS41 2020-08-06 04:21:48 46.7272 14.8437 148 ° 7 km/h 755 m -4.7 m/s Graz (AT) 404.70 MHz Sankt Andrä (AT) 0.00 km FOUND
S0220223 RS41 2020-08-06 03:56:18 48.0129 13.8634 217 ° 4 km/h 532 m -7.4 m/s Linz (AT) 403.40 MHz Gmunden (AT) 0.00 km UNKNOWN
R2510202 RS41 2020-08-06 03:53:27 46.9482 11.187 229 ° 15 km/h 4212 m -12.4 m/s Innsbruck (AT) 405.50 MHz Innsbruck (AT) 0.00 km UNKNOWN
S0351121 RS41 2020-08-06 03:12:56 40.7811 17.6191 159 ° 19 km/h 809 m -3.0 m/s Brindisi (IT) 402.70 MHz Brindisi (IT) 0.00 km UNKNOWN
S0340677 RS41-SG 2020-08-06 02:59:04 36.849 13.5708 137 ° 31 km/h 60 m -1.7 m/s Trapani-Birgi (IT) 402.70 MHz Agrigento (IT) 0.00 km LOST
ME96228C5 M10 2020-08-06 02:36:58 48.6876 2.26855 5 ° 7 km/h 798 m -6.4 m/s Trappes (FR) 401.000 MHz Longjumeau (FR) 0.00 km UNKNOWN
R3340658 RS41 2020-08-06 02:28:29 54.3566 8.1798 327 ° 39 km/h 62 m -1.0 m/s Norderney (DE) 404.10 MHz Garding (DE) 0.00 km UNKNOWN
S0420918 RS41 2020-08-06 02:17:58 48.7022 8.98683 276 ° 13 km/h 511 m -2.7 m/s Stuttgart (DE) 404.50 MHz Sindelfingen (DE) 0.00 km UNKNOWN
D19034097 DFM09 2020-08-06 02:14:33 46.2947 18.9849 282 ° 43 km/h 4107 m -11.7 m/s Szeged (HU) 402.487 MHz Hajós (HU) 0.00 km UNKNOWN
DF626FF1 DFM06 2020-08-06 02:13:48 46.2943 18.9955 275 ° 46 km/h 4908 m -11.0 m/s Szeged (HU) MHz Hajós (HU) 0.00 km UNKNOWN
S0351222 RS41 2020-08-06 02:12:06 38.285 8.94009 149 ° 46 km/h 4806 m -2.7 m/s Decimomannu (IT) 402.80 MHz 0.00 km UNKNOWN
P3610264 RS41 2020-08-06 02:01:17 24.6762 120.21 95 ° 11 km/h 2286 m -3.0 m/s New Taipei (TW) 400.30 MHz 0.00 km UNKNOWN
LMS6C3B08 LMS6 2020-08-06 01:53:28 41.4395 -89.9084 270 ° 9 km/h 2477 m -4.2 m/s 401.007 MHz 0.00 km UNKNOWN
R4520728 RS41 2020-08-06 01:52:38 52.2429 5.5733 31 ° 37 km/h 1381 m -10.3 m/s De Bilt (NL) 403.90 MHz Nijkerk (NL) 0.00 km UNKNOWN
R1020143 RS41-SGP 2020-08-06 01:48:58 40.5528 -3.25115 310 ° 15 km/h 1256 m -3.7 m/s Madrid (ES) 403.000 MHz Guadalajara (ES) 0.00 km UNKNOWN
DF926FF1 DFM09 2020-08-06 01:48:18 46.2917 19.245 252 ° 61 km/h 36799 m 6.3 m/s Szeged (HU) 402.485 MHz Jánoshalma (HU) 0.00 km UNKNOWN
ME97223CF M10 2020-08-06 01:47:19 41.2831 8.24399 164 ° 65 km/h 9897 m -6.4 m/s Ajaccio (FR) MHz Sassari (IT) 0.00 km UNKNOWN
S1441138 RS41 2020-08-06 01:44:36 47.4477 18.2556 155 ° 15 km/h 385 m -10.4 m/s Budapest (HU) 403.00 MHz Oroszlány (HU) 0.00 km UNKNOWN
R3440776 RS41 2020-08-06 01:42:23 40.9403 11.706 181 ° 19 km/h 609 m -6.5 m/s Pratica di Mare (IT) 404.20 MHz Anzio (IT) 0.00 km UNKNOWN
S1220631 RS41 2020-08-06 01:39:03 48.1455 15.7604 64 ° 17 km/h 492 m -10.9 m/s Vienna (AT) 403.50 MHz Sankt Pölten (AT) 0.00 km UNKNOWN
R0350114 RS41 2020-08-06 01:37:40 49.1539 19.6249 337 ° 19 km/h 2436 m -13.6 m/s Poprad (SK) 400.60 MHz Liptovský Mikuláš (SK) 0.00 km UNKNOWN
R3440524 RS41 2020-08-06 01:35:43 45.5794 12.2388 158 ° 15 km/h 115 m -2.8 m/s Udine-Rivolto (IT) 404.00 MHz Treviso (IT) 0.00 km UNKNOWN
S2020920 RS41 2020-08-06 01:35:35 52.2992 23.8722 249 ° 31 km/h 714 m -12.2 m/s Brest (BY) 405.30 MHz Kamyanyets (BY) 0.00 km UNKNOWN
S0350225 RS41 2020-08-06 01:31:56 45.0494 8.84916 247 ° 7 km/h 830 m -2.9 m/s Milano-Linate (IT) 404.80 MHz Alessandria (IT) 0.00 km UNKNOWN
R3640958 RS41 2020-08-06 01:29:28 53.2049 -0.17954 62 ° 33 km/h 1620 m -5.0 m/s Watnall (GB) 404.202 MHz Lincoln (GB) 0.00 km UNKNOWN
R2820421 RS41 2020-08-06 01:28:06 51.6299 7.28664 14 ° 35 km/h 212 m -3.9 m/s Essen (DE) 405.30 MHz Oer-Erkenschwick (DE) 0.00 km FOUND
S0440606 RS41 2020-08-06 01:25:21 52.1262 13.8505 342 ° 20 km/h 118 m -4.4 m/s Lindenberg (DE) 405.10 MHz Märkisch Buchholz (DE) 0.00 km UNKNOWN
N4710323 RS41 2020-08-06 01:23:31 46.6385 6.66801 148 ° 37 km/h 8939 m -24.0 m/s Payerne (CH) 403.50 MHz Échallens (CH) 0.00 km FOUND
ME9223046 M10 2020-08-06 01:23:17 43.5215 4.39602 251 ° 46 km/h 30111 m 5.9 m/s Nîmes (FR) 402.000 MHz Arles (FR) 0.00 km UNKNOWN
R2340466 RS41 2020-08-06 01:21:01 49.266 11.4682 303 ° 13 km/h 794 m -13.3 m/s Kümmersbruck (DE) 402.70 MHz Neumarkt in der Oberpfalz (DE) 0.00 km UNKNOWN
S1640062 RS41 2020-08-06 01:19:28 51.0218 1.03559 43 ° 20 km/h 58 m -5.1 m/s Herstmonceux (GB) 404.783 MHz Canterbury (GB) 0.00 km UNKNOWN
S0510635 RS41 2020-08-06 01:18:59 48.018 11.0208 286 ° 22 km/h 824 m -5.1 m/s München (DE) 402.30 MHz Landsberg am Lech (DE) 0.00 km FOUND
S0651278 RS41 2020-08-06 01:18:58 60.697 24.6725 37 ° 26 km/h 237 m -10.4 m/s Jokioinen (FI) 403.000 MHz Riihimäki (FI) 0.00 km UNKNOWN
R3960157 RS41 2020-08-06 01:17:25 51.0721 16.5197 297 ° 24 km/h 373 m -12.9 m/s Wrocław (PL) 403.00 MHz Środa Śląska (PL) 0.00 km FOUND
P1910856 RS41 2020-08-06 01:17:17 49.4173 16.5874 219 ° 44 km/h 746 m -16.5 m/s Prostějov (CZ) 402.10 MHz Rájec-Jestřebí (CZ) 0.00 km UNKNOWN
S0550311 RS41-SG 2020-08-06 01:16:48 59.2333 25.5913 1 ° 19 km/h 172 m -14.9 m/s Tallinn (EE) 404.000 MHz Kehra (EE) 0.00 km NEED ATTENTION
R4450050 RS41-SG 2020-08-06 01:16:04 44.9468 25.6914 289 ° 57 km/h 1713 m -10.1 m/s Bucarest (RO) 403.921 MHz Moreni (RO) 0.00 km UNKNOWN
R4220850 RS41 2020-08-06 01:14:17 54.7236 17.633 53 ° 19 km/h 770 m -14.9 m/s Łeba (PL) 403.00 MHz Łeba (PL) 0.00 km UNKNOWN
R2320669 RS41 2020-08-06 01:13:33 53.002 10.1127 335 ° 20 km/h 354 m -11.6 m/s Bergen (DE) 405.70 MHz Munster (DE) 0.00 km UNKNOWN
R3310307 RS41 2020-08-06 01:11:18 45.662 15.1856 272 ° 63 km/h 3264 m -16.7 m/s Zagreb (HR) 402.00 MHz Novo Mesto (SI) 0.00 km FOUND
R2330685 RS41 2020-08-06 01:11:10 49.6967 7.26644 301 ° 19 km/h 1362 m -6.8 m/s Idar-Oberstein (DE) 402.70 MHz Idar-Oberstein (DE) 0.00 km UNKNOWN
R3710322 RS41-SG 2020-08-06 01:08:59 -35.121 139.027 276 ° 22 km/h 1177 m -7.9 m/s Adelaide (AU) 401.501 MHz Murray Bridge (AU) 0.00 km UNKNOWN
R3560301 2020-08-06 01:06:59 -22.7474 -43.2572 73 ° 41 km/h 10642 m -9.3 m/s 405.301 MHz 0.00 km UNKNOWN
R4410870 RS41 2020-08-06 01:06:20 52.4709 20.8739 251 ° 44 km/h 236 m -13.6 m/s Legionowo (PL) 404.50 MHz Legionowo (PL) 0.00 km UNKNOWN
S0220205 RS41 2020-08-06 01:05:16 49.8777 14.0741 283 ° 15 km/h 581 m -16.0 m/s Praha (CZ) 401.10 MHz Liteň (CZ) 0.00 km UNKNOWN
R2740502 RS41 2020-08-06 01:01:48 54.8661 10.0234 289 ° 13 km/h 159 m -7.3 m/s Schleswig (DE) 402.50 MHz Høruphav (DK) 0.00 km UNKNOWN
S1050227 RS41-SG 2020-08-06 00:57:59 -37.5086 145.849 74 ° 69 km/h 7527 m -9.7 m/s Melbourne (AU) 401.501 MHz Warragul (AU) 0.00 km UNKNOWN
ME9222A4B M10 2020-08-06 00:57:52 43.6716 21.4147 251 ° 22 km/h 19101 m -44.0 m/s Niš (RS) 402.400 MHz Ćićevac (RS) 0.00 km UNKNOWN
ME9222AC8 M10 2020-08-06 00:57:02 44.9377 19.6251 293 ° 59 km/h 5216 m -17.3 m/s Belgrade (RS) 402.800 MHz Sremska Mitrovica (RS) 0.00 km UNKNOWN
R3240476 RS41 2020-08-06 00:56:45 43.8815 14.6203 205 ° 44 km/h 14459 m -33.0 m/s Zadar (HR) 403.00 MHz Zadar (HR) 0.00 km UNKNOWN
S0550199 RS41 2020-08-06 00:56:37 54.1738 13.5655 19 ° 41 km/h 183 m -12.3 m/s Greifswald (DE) 402.30 MHz Greifswald (DE) 0.00 km UNKNOWN
S0440833 RS41 2020-08-06 00:55:53 44.2426 11.0979 208 ° 59 km/h 15072 m -35.7 m/s San Pietro Capofiume (IT) 404.60 MHz Bologna (IT) 0.00 km UNKNOWN
R1120332 RS41 2020-08-06 00:51:16 43.5664 -3.16235 91 ° 46 km/h 7960 m -6.5 m/s Santander (ES) 401.50 MHz Getxo (ES) 0.00 km UNKNOWN
S0430444 RS41 2020-08-06 00:48:42 50.5679 10.3172 35 ° 19 km/h 1016 m -13.2 m/s Meiningen (DE) 402.30 MHz Meiningen (DE) 0.00 km FOUND
R2950054 RS41 2020-08-06 00:46:45 56.9494 3.50026 72 ° 44 km/h 16109 m -21.4 m/s Ekofisk (NO) 403.00 MHz 0.00 km UNKNOWN
R4820754 RS41-SG 2020-08-06 00:44:59 -32.7384 153.081 81 ° 130 km/h 14452 m -19.2 m/s 402.401 MHz Forster (AU) 0.00 km UNKNOWN
R1920869 RS41 2020-08-06 00:42:52 44.1418 7.27604 178 ° 41 km/h 4931 m -10.2 m/s Cuneo-Levaldigi (IT) 405.00 MHz Cuneo (IT) 0.00 km UNKNOWN
S1620424 RS41 2020-08-06 00:34:58 54.7792 -5.37179 338 ° 11 km/h 21555 m 6.0 m/s Castor Bay (IE) 404.202 MHz Donaghadee (IE) 0.00 km UNKNOWN
R2150832 RS41 2020-08-06 00:34:28 59.2049 6.20778 69 ° 48 km/h 16390 m -38.4 m/s Stavanger (NO) 403.001 MHz 0.00 km UNKNOWN
R3670325 RS41 2020-08-06 00:00:29 -37.7713 141.031 98 ° 67 km/h 14767 m 4.3 m/s 401.501 MHz Mount Gambier (AU) 0.00 km UNKNOWN
DF63D10C DFM06 2020-08-05 23:23:53 36.3699 10.6387 120 ° 50 km/h 2220 m -11.5 m/s Tunis (TN) MHz 0.00 km UNKNOWN
IMET2B3F9 IMET 2020-08-05 23:22:28 50.9721 5.34865 0 ° 0 km/h 9966 m 0.0 m/s Beauvechain (BE) 402.995 MHz Hasselt (BE) 0.00 km UNKNOWN
IMET85032 iMET 2020-08-05 23:06:03 50.944 5.2578 298 ° 26 km/h 24272 m -22.5 m/s Beauvechain (BE) 402.998 MHz Hasselt (BE) 0.00 km UNKNOWN
R2331449 RS41 2020-08-05 19:34:01 49.1606 11.4112 290 ° 15 km/h 1754 m -10.2 m/s Kümmersbruck (DE) 402.70 MHz Berching (DE) 0.00 km UNKNOWN
R2320668 RS41 2020-08-05 19:21:41 52.9229 10.2023 13 ° 19 km/h 652 m -8.6 m/s Bergen (DE) 405.70 MHz Munster (DE) 0.00 km FOUND
S0651276 RS41 2020-08-05 19:18:58 60.9309 24.2853 78 ° 35 km/h 3267 m -14.9 m/s Jokioinen (FI) 403.000 MHz Hämeenlinna (FI) 0.00 km UNKNOWN
R2330700 RS41 2020-08-05 19:16:58 49.6659 7.35348 313 ° 20 km/h 997 m -10.8 m/s Idar-Oberstein (DE) 402.70 MHz Baumholder (DE) 0.00 km UNKNOWN
R0340480 RS41 2020-08-05 19:13:47 49.1995 19.8563 313 ° 19 km/h 3821 m -18.9 m/s Poprad (SK) 400.600 MHz Zakopane (PL) 0.00 km UNKNOWN
ME9222ACB M10 2020-08-05 19:01:12 44.9933 19.6026 287 ° 67 km/h 3165 m -11.7 m/s Belgrade (RS) 402.800 MHz Sremska Mitrovica (RS) 0.00 km UNKNOWN
R3661277 RS41 2020-08-05 18:56:34 52.0348 14.0238 323 ° 20 km/h 187 m -11.9 m/s Lindenberg (DE) 405.10 MHz Lübben (DE) 0.00 km FOUND
P3420896 RS41 2020-08-05 17:37:08 47.412 10.6865 56 ° 6 km/h 1638 m -5.2 m/s Altenstadt (DE) 402.50 MHz Füssen (DE) 0.00 km UNKNOWN